sensor_id;sensor_type;location;lat;lon;timestamp;pressure;altitude;pressure_sealevel;temperature
16956;BMP180;8594;52.052;8.354;2023-03-23T00:02:23;99487.00;;;14.20
16956;BMP180;8594;52.052;8.354;2023-03-23T00:04:51;99482.00;;;14.30
16956;BMP180;8594;52.052;8.354;2023-03-23T00:07:20;99476.00;;;14.50
16956;BMP180;8594;52.052;8.354;2023-03-23T00:09:48;99493.00;;;14.50
16956;BMP180;8594;52.052;8.354;2023-03-23T00:12:20;99487.00;;;14.80
16956;BMP180;8594;52.052;8.354;2023-03-23T00:14:47;99486.00;;;14.40
16956;BMP180;8594;52.052;8.354;2023-03-23T00:17:14;99481.00;;;14.40
16956;BMP180;8594;52.052;8.354;2023-03-23T00:19:41;99472.00;;;14.20
16956;BMP180;8594;52.052;8.354;2023-03-23T00:22:13;99475.00;;;14.40
16956;BMP180;8594;52.052;8.354;2023-03-23T00:24:43;99467.00;;;14.40
16956;BMP180;8594;52.052;8.354;2023-03-23T00:27:10;99468.00;;;14.60
16956;BMP180;8594;52.052;8.354;2023-03-23T00:29:40;99466.00;;;14.20
16956;BMP180;8594;52.052;8.354;2023-03-23T00:32:08;99465.00;;;14.50
16956;BMP180;8594;52.052;8.354;2023-03-23T00:34:39;99457.00;;;14.20
16956;BMP180;8594;52.052;8.354;2023-03-23T00:37:07;99456.00;;;14.20
16956;BMP180;8594;52.052;8.354;2023-03-23T00:39:35;99459.00;;;14.40
16956;BMP180;8594;52.052;8.354;2023-03-23T00:42:05;99449.00;;;14.40
16956;BMP180;8594;52.052;8.354;2023-03-23T00:44:33;99462.00;;;14.10
16956;BMP180;8594;52.052;8.354;2023-03-23T00:47:02;99449.00;;;14.50
16956;BMP180;8594;52.052;8.354;2023-03-23T00:49:35;99451.00;;;14.70
16956;BMP180;8594;52.052;8.354;2023-03-23T00:52:04;99447.00;;;14.60
16956;BMP180;8594;52.052;8.354;2023-03-23T00:54:32;99448.00;;;14.50
16956;BMP180;8594;52.052;8.354;2023-03-23T00:57:00;99447.00;;;14.30
16956;BMP180;8594;52.052;8.354;2023-03-23T00:59:28;99438.00;;;14.40
16956;BMP180;8594;52.052;8.354;2023-03-23T01:01:55;99434.00;;;14.50
16956;BMP180;8594;52.052;8.354;2023-03-23T01:04:22;99435.00;;;14.60
16956;BMP180;8594;52.052;8.354;2023-03-23T01:06:50;99433.00;;;14.60
16956;BMP180;8594;52.052;8.354;2023-03-23T01:09:18;99426.00;;;14.90
16956;BMP180;8594;52.052;8.354;2023-03-23T01:11:48;99423.00;;;14.60
16956;BMP180;8594;52.052;8.354;2023-03-23T01:14:18;99423.00;;;14.50
16956;BMP180;8594;52.052;8.354;2023-03-23T01:16:46;99421.00;;;14.40
16956;BMP180;8594;52.052;8.354;2023-03-23T01:19:13;99418.00;;;14.70
16956;BMP180;8594;52.052;8.354;2023-03-23T01:21:41;99421.00;;;14.50
16956;BMP180;8594;52.052;8.354;2023-03-23T01:24:08;99425.00;;;14.40
16956;BMP180;8594;52.052;8.354;2023-03-23T01:26:35;99416.00;;;14.30
16956;BMP180;8594;52.052;8.354;2023-03-23T01:29:03;99402.00;;;14.50
16956;BMP180;8594;52.052;8.354;2023-03-23T01:31:30;99405.00;;;14.60
16956;BMP180;8594;52.052;8.354;2023-03-23T01:33:58;99413.00;;;14.60
16956;BMP180;8594;52.052;8.354;2023-03-23T01:36:28;99416.00;;;14.50
16956;BMP180;8594;52.052;8.354;2023-03-23T01:38:59;99405.00;;;14.40
16956;BMP180;8594;52.052;8.354;2023-03-23T01:41:26;99407.00;;;14.50
16956;BMP180;8594;52.052;8.354;2023-03-23T01:43:59;99403.00;;;14.50
16956;BMP180;8594;52.052;8.354;2023-03-23T01:46:30;99408.00;;;14.50
16956;BMP180;8594;52.052;8.354;2023-03-23T01:49:03;99408.00;;;14.40
16956;BMP180;8594;52.052;8.354;2023-03-23T01:51:37;99397.00;;;14.80
16956;BMP180;8594;52.052;8.354;2023-03-23T01:54:12;99393.00;;;14.50
16956;BMP180;8594;52.052;8.354;2023-03-23T01:56:50;99394.00;;;14.70
16956;BMP180;8594;52.052;8.354;2023-03-23T01:59:20;99396.00;;;14.50
16956;BMP180;8594;52.052;8.354;2023-03-23T02:01:49;99393.00;;;14.10
16956;BMP180;8594;52.052;8.354;2023-03-23T02:04:20;99394.00;;;14.60
16956;BMP180;8594;52.052;8.354;2023-03-23T02:06:47;99395.00;;;14.60
16956;BMP180;8594;52.052;8.354;2023-03-23T02:09:14;99395.00;;;14.60
16956;BMP180;8594;52.052;8.354;2023-03-23T02:11:42;99372.00;;;14.70
16956;BMP180;8594;52.052;8.354;2023-03-23T02:14:10;99383.00;;;14.60
16956;BMP180;8594;52.052;8.354;2023-03-23T02:16:44;99379.00;;;14.50
16956;BMP180;8594;52.052;8.354;2023-03-23T02:19:47;99373.00;;;14.50
16956;BMP180;8594;52.052;8.354;2023-03-23T02:22:48;99377.00;;;14.60
16956;BMP180;8594;52.052;8.354;2023-03-23T02:25:45;99372.00;;;14.60
16956;BMP180;8594;52.052;8.354;2023-03-23T02:28:51;99343.00;;;14.50
16956;BMP180;8594;52.052;8.354;2023-03-23T02:31:45;99340.00;;;14.70
16956;BMP180;8594;52.052;8.354;2023-03-23T02:34:18;99348.00;;;14.60
16956;BMP180;8594;52.052;8.354;2023-03-23T02:36:52;99331.00;;;14.30
16956;BMP180;8594;52.052;8.354;2023-03-23T02:39:25;99342.00;;;14.60
16956;BMP180;8594;52.052;8.354;2023-03-23T02:41:58;99351.00;;;14.40
16956;BMP180;8594;52.052;8.354;2023-03-23T02:44:29;99344.00;;;14.60
16956;BMP180;8594;52.052;8.354;2023-03-23T02:46:59;99342.00;;;14.60
16956;BMP180;8594;52.052;8.354;2023-03-23T02:49:32;99339.00;;;14.80
16956;BMP180;8594;52.052;8.354;2023-03-23T02:52:05;99324.00;;;14.70
16956;BMP180;8594;52.052;8.354;2023-03-23T02:54:35;99330.00;;;14.40
16956;BMP180;8594;52.052;8.354;2023-03-23T02:57:02;99327.00;;;14.40
16956;BMP180;8594;52.052;8.354;2023-03-23T02:59:30;99339.00;;;14.30
16956;BMP180;8594;52.052;8.354;2023-03-23T03:02:04;99335.00;;;14.40
16956;BMP180;8594;52.052;8.354;2023-03-23T03:04:34;99340.00;;;14.50
16956;BMP180;8594;52.052;8.354;2023-03-23T03:07:30;99341.00;;;14.70
16956;BMP180;8594;52.052;8.354;2023-03-23T03:10:06;99347.00;;;14.50
16956;BMP180;8594;52.052;8.354;2023-03-23T03:12:46;99323.00;;;14.20
16956;BMP180;8594;52.052;8.354;2023-03-23T03:15:26;99336.00;;;14.70
16956;BMP180;8594;52.052;8.354;2023-03-23T03:18:04;99336.00;;;14.50
16956;BMP180;8594;52.052;8.354;2023-03-23T03:20:40;99323.00;;;14.70
16956;BMP180;8594;52.052;8.354;2023-03-23T03:23:09;99322.00;;;14.20
16956;BMP180;8594;52.052;8.354;2023-03-23T03:25:39;99313.00;;;14.60
16956;BMP180;8594;52.052;8.354;2023-03-23T03:28:08;99298.00;;;14.40
16956;BMP180;8594;52.052;8.354;2023-03-23T03:30:37;99305.00;;;14.50
16956;BMP180;8594;52.052;8.354;2023-03-23T03:33:05;99317.00;;;14.50
16956;BMP180;8594;52.052;8.354;2023-03-23T03:35:37;99308.00;;;14.20
16956;BMP180;8594;52.052;8.354;2023-03-23T03:38:07;99295.00;;;14.50
16956;BMP180;8594;52.052;8.354;2023-03-23T03:40:34;99277.00;;;14.50
16956;BMP180;8594;52.052;8.354;2023-03-23T03:43:02;99269.00;;;14.20
16956;BMP180;8594;52.052;8.354;2023-03-23T03:45:30;99280.00;;;14.50
16956;BMP180;8594;52.052;8.354;2023-03-23T03:47:57;99291.00;;;14.50
16956;BMP180;8594;52.052;8.354;2023-03-23T03:50:24;99296.00;;;14.50
16956;BMP180;8594;52.052;8.354;2023-03-23T03:52:52;99304.00;;;14.30
16956;BMP180;8594;52.052;8.354;2023-03-23T03:55:19;99298.00;;;14.30
16956;BMP180;8594;52.052;8.354;2023-03-23T03:57:46;99304.00;;;14.50
16956;BMP180;8594;52.052;8.354;2023-03-23T04:00:15;99295.00;;;14.50
16956;BMP180;8594;52.052;8.354;2023-03-23T04:02:43;99287.00;;;14.40
16956;BMP180;8594;52.052;8.354;2023-03-23T04:05:13;99287.00;;;14.40
16956;BMP180;8594;52.052;8.354;2023-03-23T04:07:40;99292.00;;;14.20
16956;BMP180;8594;52.052;8.354;2023-03-23T04:10:10;99281.00;;;14.40
16956;BMP180;8594;52.052;8.354;2023-03-23T04:12:39;99286.00;;;14.50
16956;BMP180;8594;52.052;8.354;2023-03-23T04:15:07;99286.00;;;14.60
16956;BMP180;8594;52.052;8.354;2023-03-23T04:17:34;99297.00;;;14.50
16956;BMP180;8594;52.052;8.354;2023-03-23T04:20:03;99291.00;;;14.50
16956;BMP180;8594;52.052;8.354;2023-03-23T04:22:33;99296.00;;;14.60
16956;BMP180;8594;52.052;8.354;2023-03-23T04:25:01;99293.00;;;14.70
16956;BMP180;8594;52.052;8.354;2023-03-23T04:27:33;99297.00;;;14.60
16956;BMP180;8594;52.052;8.354;2023-03-23T04:30:00;99307.00;;;14.50
16956;BMP180;8594;52.052;8.354;2023-03-23T04:32:28;99312.00;;;14.50
16956;BMP180;8594;52.052;8.354;2023-03-23T04:34:56;99300.00;;;14.20
16956;BMP180;8594;52.052;8.354;2023-03-23T04:37:24;99311.00;;;14.20
16956;BMP180;8594;52.052;8.354;2023-03-23T04:39:55;99309.00;;;14.40
16956;BMP180;8594;52.052;8.354;2023-03-23T04:42:27;99315.00;;;14.40
16956;BMP180;8594;52.052;8.354;2023-03-23T04:44:57;99317.00;;;14.30
16956;BMP180;8594;52.052;8.354;2023-03-23T04:47:26;99304.00;;;14.20
16956;BMP180;8594;52.052;8.354;2023-03-23T04:49:55;99310.00;;;14.50
16956;BMP180;8594;52.052;8.354;2023-03-23T04:52:23;99321.00;;;14.50
16956;BMP180;8594;52.052;8.354;2023-03-23T04:54:50;99313.00;;;14.00
16956;BMP180;8594;52.052;8.354;2023-03-23T04:57:18;99311.00;;;14.20
16956;BMP180;8594;52.052;8.354;2023-03-23T04:59:45;99310.00;;;14.50
16956;BMP180;8594;52.052;8.354;2023-03-23T05:02:13;99308.00;;;14.70
16956;BMP180;8594;52.052;8.354;2023-03-23T05:04:42;99317.00;;;14.50
16956;BMP180;8594;52.052;8.354;2023-03-23T05:07:11;99309.00;;;14.40
16956;BMP180;8594;52.052;8.354;2023-03-23T05:09:38;99310.00;;;14.40
16956;BMP180;8594;52.052;8.354;2023-03-23T05:12:06;99307.00;;;14.40
16956;BMP180;8594;52.052;8.354;2023-03-23T05:14:33;99308.00;;;14.40
16956;BMP180;8594;52.052;8.354;2023-03-23T05:17:00;99293.00;;;14.40
16956;BMP180;8594;52.052;8.354;2023-03-23T05:19:28;99304.00;;;14.60
16956;BMP180;8594;52.052;8.354;2023-03-23T05:21:57;99295.00;;;14.60
16956;BMP180;8594;52.052;8.354;2023-03-23T05:24:29;99288.00;;;14.40
16956;BMP180;8594;52.052;8.354;2023-03-23T05:26:58;99293.00;;;14.50
16956;BMP180;8594;52.052;8.354;2023-03-23T05:29:26;99297.00;;;14.40
16956;BMP180;8594;52.052;8.354;2023-03-23T05:31:56;99289.00;;;14.40
16956;BMP180;8594;52.052;8.354;2023-03-23T05:34:25;99283.00;;;14.40
16956;BMP180;8594;52.052;8.354;2023-03-23T05:36:53;99292.00;;;14.40
16956;BMP180;8594;52.052;8.354;2023-03-23T05:39:21;99290.00;;;14.40
16956;BMP180;8594;52.052;8.354;2023-03-23T05:41:48;99292.00;;;14.30
16956;BMP180;8594;52.052;8.354;2023-03-23T05:44:15;99292.00;;;14.50
16956;BMP180;8594;52.052;8.354;2023-03-23T05:46:41;99307.00;;;14.30
16956;BMP180;8594;52.052;8.354;2023-03-23T05:49:08;99308.00;;;14.50
16956;BMP180;8594;52.052;8.354;2023-03-23T05:51:36;99319.00;;;14.40
16956;BMP180;8594;52.052;8.354;2023-03-23T05:54:04;99311.00;;;14.70
16956;BMP180;8594;52.052;8.354;2023-03-23T05:56:32;99310.00;;;14.30
16956;BMP180;8594;52.052;8.354;2023-03-23T05:58:59;99321.00;;;14.00
16956;BMP180;8594;52.052;8.354;2023-03-23T06:01:26;99319.00;;;14.40
16956;BMP180;8594;52.052;8.354;2023-03-23T06:03:53;99306.00;;;14.30
16956;BMP180;8594;52.052;8.354;2023-03-23T06:06:24;99322.00;;;14.50
16956;BMP180;8594;52.052;8.354;2023-03-23T06:08:51;99321.00;;;14.70
16956;BMP180;8594;52.052;8.354;2023-03-23T06:11:20;99324.00;;;14.30
16956;BMP180;8594;52.052;8.354;2023-03-23T06:13:47;99332.00;;;14.70
16956;BMP180;8594;52.052;8.354;2023-03-23T06:16:14;99325.00;;;14.40
16956;BMP180;8594;52.052;8.354;2023-03-23T06:18:42;99330.00;;;14.50
16956;BMP180;8594;52.052;8.354;2023-03-23T06:21:10;99327.00;;;14.20
16956;BMP180;8594;52.052;8.354;2023-03-23T06:23:38;99335.00;;;14.60
16956;BMP180;8594;52.052;8.354;2023-03-23T06:26:07;99335.00;;;14.50
16956;BMP180;8594;52.052;8.354;2023-03-23T06:28:37;99336.00;;;14.60
16956;BMP180;8594;52.052;8.354;2023-03-23T06:31:05;99333.00;;;14.50
16956;BMP180;8594;52.052;8.354;2023-03-23T06:33:33;99337.00;;;14.80
16956;BMP180;8594;52.052;8.354;2023-03-23T06:36:02;99331.00;;;14.80
16956;BMP180;8594;52.052;8.354;2023-03-23T06:38:29;99329.00;;;14.70
16956;BMP180;8594;52.052;8.354;2023-03-23T06:40:56;99344.00;;;14.70
16956;BMP180;8594;52.052;8.354;2023-03-23T06:43:24;99340.00;;;14.80
16956;BMP180;8594;52.052;8.354;2023-03-23T06:45:52;99351.00;;;14.90
16956;BMP180;8594;52.052;8.354;2023-03-23T06:48:19;99353.00;;;14.90
16956;BMP180;8594;52.052;8.354;2023-03-23T06:50:46;99345.00;;;14.60
16956;BMP180;8594;52.052;8.354;2023-03-23T06:53:13;99348.00;;;14.90
16956;BMP180;8594;52.052;8.354;2023-03-23T06:55:43;99341.00;;;14.80
16956;BMP180;8594;52.052;8.354;2023-03-23T06:58:10;99340.00;;;15.00
16956;BMP180;8594;52.052;8.354;2023-03-23T07:00:37;99350.00;;;14.90
16956;BMP180;8594;52.052;8.354;2023-03-23T07:03:07;99345.00;;;14.70
16956;BMP180;8594;52.052;8.354;2023-03-23T07:05:34;99358.00;;;15.30
16956;BMP180;8594;52.052;8.354;2023-03-23T07:08:02;99347.00;;;15.30
16956;BMP180;8594;52.052;8.354;2023-03-23T07:10:29;99353.00;;;15.20
16956;BMP180;8594;52.052;8.354;2023-03-23T07:12:57;99335.00;;;15.10
16956;BMP180;8594;52.052;8.354;2023-03-23T07:15:24;99337.00;;;14.90
16956;BMP180;8594;52.052;8.354;2023-03-23T07:17:52;99357.00;;;15.10
16956;BMP180;8594;52.052;8.354;2023-03-23T07:20:21;99351.00;;;15.30
16956;BMP180;8594;52.052;8.354;2023-03-23T07:22:48;99340.00;;;15.20
16956;BMP180;8594;52.052;8.354;2023-03-23T07:25:16;99342.00;;;15.40
16956;BMP180;8594;52.052;8.354;2023-03-23T07:27:45;99352.00;;;15.40
16956;BMP180;8594;52.052;8.354;2023-03-23T07:30:13;99359.00;;;15.40
16956;BMP180;8594;52.052;8.354;2023-03-23T07:32:41;99346.00;;;15.30
16956;BMP180;8594;52.052;8.354;2023-03-23T07:35:09;99354.00;;;15.50
16956;BMP180;8594;52.052;8.354;2023-03-23T07:37:37;99356.00;;;15.30
16956;BMP180;8594;52.052;8.354;2023-03-23T07:40:06;99357.00;;;15.50
16956;BMP180;8594;52.052;8.354;2023-03-23T07:42:41;99361.00;;;15.70
16956;BMP180;8594;52.052;8.354;2023-03-23T07:45:10;99365.00;;;15.40
16956;BMP180;8594;52.052;8.354;2023-03-23T07:47:37;99373.00;;;15.50
16956;BMP180;8594;52.052;8.354;2023-03-23T07:50:06;99374.00;;;15.60
16956;BMP180;8594;52.052;8.354;2023-03-23T07:52:34;99374.00;;;15.70
16956;BMP180;8594;52.052;8.354;2023-03-23T07:55:06;99373.00;;;15.40
16956;BMP180;8594;52.052;8.354;2023-03-23T07:57:34;99383.00;;;15.30
16956;BMP180;8594;52.052;8.354;2023-03-23T08:00:01;99389.00;;;15.00
16956;BMP180;8594;52.052;8.354;2023-03-23T08:02:40;99382.00;;;14.90
16956;BMP180;8594;52.052;8.354;2023-03-23T08:05:07;99385.00;;;15.10
16956;BMP180;8594;52.052;8.354;2023-03-23T08:07:36;99382.00;;;15.00
16956;BMP180;8594;52.052;8.354;2023-03-23T08:10:06;99377.00;;;15.20
16956;BMP180;8594;52.052;8.354;2023-03-23T08:12:35;99382.00;;;15.40
16956;BMP180;8594;52.052;8.354;2023-03-23T08:15:04;99378.00;;;15.10
16956;BMP180;8594;52.052;8.354;2023-03-23T08:17:31;99376.00;;;15.00
16956;BMP180;8594;52.052;8.354;2023-03-23T08:20:00;99381.00;;;15.20
16956;BMP180;8594;52.052;8.354;2023-03-23T08:22:33;99389.00;;;15.00
16956;BMP180;8594;52.052;8.354;2023-03-23T08:25:01;99398.00;;;15.40
16956;BMP180;8594;52.052;8.354;2023-03-23T08:27:30;99383.00;;;15.20
16956;BMP180;8594;52.052;8.354;2023-03-23T08:29:57;99374.00;;;15.50
16956;BMP180;8594;52.052;8.354;2023-03-23T08:32:24;99395.00;;;15.30
16956;BMP180;8594;52.052;8.354;2023-03-23T08:34:51;99380.00;;;15.20
16956;BMP180;8594;52.052;8.354;2023-03-23T08:37:18;99388.00;;;15.30
16956;BMP180;8594;52.052;8.354;2023-03-23T08:39:45;99388.00;;;15.30
16956;BMP180;8594;52.052;8.354;2023-03-23T08:42:12;99392.00;;;15.50
16956;BMP180;8594;52.052;8.354;2023-03-23T08:44:41;99390.00;;;15.70
16956;BMP180;8594;52.052;8.354;2023-03-23T08:47:08;99387.00;;;15.90
16956;BMP180;8594;52.052;8.354;2023-03-23T08:49:35;99387.00;;;15.60
16956;BMP180;8594;52.052;8.354;2023-03-23T08:52:02;99396.00;;;15.60
16956;BMP180;8594;52.052;8.354;2023-03-23T08:54:29;99393.00;;;15.90
16956;BMP180;8594;52.052;8.354;2023-03-23T08:57:00;99394.00;;;15.50
16956;BMP180;8594;52.052;8.354;2023-03-23T08:59:27;99404.00;;;15.80
16956;BMP180;8594;52.052;8.354;2023-03-23T09:01:56;99405.00;;;16.10
16956;BMP180;8594;52.052;8.354;2023-03-23T09:04:22;99405.00;;;15.70
16956;BMP180;8594;52.052;8.354;2023-03-23T09:06:49;99409.00;;;16.00
16956;BMP180;8594;52.052;8.354;2023-03-23T09:09:16;99415.00;;;16.00
16956;BMP180;8594;52.052;8.354;2023-03-23T09:11:43;99409.00;;;15.60
16956;BMP180;8594;52.052;8.354;2023-03-23T09:14:11;99417.00;;;16.00
16956;BMP180;8594;52.052;8.354;2023-03-23T09:16:38;99403.00;;;15.50
16956;BMP180;8594;52.052;8.354;2023-03-23T09:19:07;99414.00;;;16.10
16956;BMP180;8594;52.052;8.354;2023-03-23T09:21:35;99411.00;;;15.70
16956;BMP180;8594;52.052;8.354;2023-03-23T09:24:03;99421.00;;;16.00
16956;BMP180;8594;52.052;8.354;2023-03-23T09:26:31;99418.00;;;16.10
16956;BMP180;8594;52.052;8.354;2023-03-23T09:28:58;99421.00;;;16.10
16956;BMP180;8594;52.052;8.354;2023-03-23T09:31:25;99426.00;;;15.80
16956;BMP180;8594;52.052;8.354;2023-03-23T09:33:53;99419.00;;;15.60
16956;BMP180;8594;52.052;8.354;2023-03-23T09:36:23;99439.00;;;15.80
16956;BMP180;8594;52.052;8.354;2023-03-23T09:38:52;99435.00;;;15.80
16956;BMP180;8594;52.052;8.354;2023-03-23T09:41:42;99445.00;;;16.10
16956;BMP180;8594;52.052;8.354;2023-03-23T09:44:22;99455.00;;;15.40
16956;BMP180;8594;52.052;8.354;2023-03-23T09:47:01;99440.00;;;15.50
16956;BMP180;8594;52.052;8.354;2023-03-23T09:49:34;99447.00;;;15.70
16956;BMP180;8594;52.052;8.354;2023-03-23T09:52:12;99450.00;;;15.60
16956;BMP180;8594;52.052;8.354;2023-03-23T09:54:43;99453.00;;;15.70
16956;BMP180;8594;52.052;8.354;2023-03-23T09:57:16;99449.00;;;15.30
16956;BMP180;8594;52.052;8.354;2023-03-23T09:59:54;99451.00;;;15.70
16956;BMP180;8594;52.052;8.354;2023-03-23T10:02:29;99458.00;;;15.70
16956;BMP180;8594;52.052;8.354;2023-03-23T10:05:25;99448.00;;;16.20
16956;BMP180;8594;52.052;8.354;2023-03-23T10:07:56;99462.00;;;16.30
16956;BMP180;8594;52.052;8.354;2023-03-23T10:10:31;99462.00;;;16.30
16956;BMP180;8594;52.052;8.354;2023-03-23T10:13:06;99459.00;;;16.30
16956;BMP180;8594;52.052;8.354;2023-03-23T10:15:38;99443.00;;;16.10
16956;BMP180;8594;52.052;8.354;2023-03-23T10:18:17;99454.00;;;16.20
16956;BMP180;8594;52.052;8.354;2023-03-23T10:20:51;99454.00;;;16.70
16956;BMP180;8594;52.052;8.354;2023-03-23T10:23:47;99451.00;;;16.90
16956;BMP180;8594;52.052;8.354;2023-03-23T10:26:30;99444.00;;;16.20
16956;BMP180;8594;52.052;8.354;2023-03-23T10:29:09;99435.00;;;17.00
16956;BMP180;8594;52.052;8.354;2023-03-23T10:31:42;99420.00;;;16.70
16956;BMP180;8594;52.052;8.354;2023-03-23T10:34:15;99433.00;;;16.70
16956;BMP180;8594;52.052;8.354;2023-03-23T10:36:56;99451.00;;;16.60
16956;BMP180;8594;52.052;8.354;2023-03-23T10:39:32;99509.00;;;14.70
16956;BMP180;8594;52.052;8.354;2023-03-23T10:42:04;99512.00;;;14.80
16956;BMP180;8594;52.052;8.354;2023-03-23T10:44:33;99525.00;;;13.90
16956;BMP180;8594;52.052;8.354;2023-03-23T10:47:04;99538.00;;;14.00
16956;BMP180;8594;52.052;8.354;2023-03-23T10:49:38;99532.00;;;13.70
16956;BMP180;8594;52.052;8.354;2023-03-23T10:52:23;99529.00;;;13.80
16956;BMP180;8594;52.052;8.354;2023-03-23T10:54:57;99544.00;;;13.70
16956;BMP180;8594;52.052;8.354;2023-03-23T10:57:27;99535.00;;;13.90
16956;BMP180;8594;52.052;8.354;2023-03-23T11:00:03;99527.00;;;13.80
16956;BMP180;8594;52.052;8.354;2023-03-23T11:02:38;99537.00;;;13.70
16956;BMP180;8594;52.052;8.354;2023-03-23T11:05:18;99540.00;;;13.40
16956;BMP180;8594;52.052;8.354;2023-03-23T11:07:52;99544.00;;;13.70
16956;BMP180;8594;52.052;8.354;2023-03-23T11:10:25;99539.00;;;13.30
16956;BMP180;8594;52.052;8.354;2023-03-23T11:12:56;99539.00;;;13.70
16956;BMP180;8594;52.052;8.354;2023-03-23T11:15:29;99523.00;;;13.60
16956;BMP180;8594;52.052;8.354;2023-03-23T11:18:02;99513.00;;;13.80
16956;BMP180;8594;52.052;8.354;2023-03-23T11:20:35;99543.00;;;14.00
16956;BMP180;8594;52.052;8.354;2023-03-23T11:23:19;99550.00;;;13.90
16956;BMP180;8594;52.052;8.354;2023-03-23T11:26:02;99542.00;;;13.90
16956;BMP180;8594;52.052;8.354;2023-03-23T11:28:33;99540.00;;;13.90
16956;BMP180;8594;52.052;8.354;2023-03-23T11:31:04;99530.00;;;14.00
16956;BMP180;8594;52.052;8.354;2023-03-23T11:33:38;99547.00;;;14.10
16956;BMP180;8594;52.052;8.354;2023-03-23T11:36:07;99553.00;;;13.70
16956;BMP180;8594;52.052;8.354;2023-03-23T11:38:35;99568.00;;;13.90
16956;BMP180;8594;52.052;8.354;2023-03-23T11:41:10;99564.00;;;13.80
16956;BMP180;8594;52.052;8.354;2023-03-23T11:43:44;99578.00;;;13.80
16956;BMP180;8594;52.052;8.354;2023-03-23T11:46:20;99592.00;;;14.00
16956;BMP180;8594;52.052;8.354;2023-03-23T11:48:56;99581.00;;;14.10
16956;BMP180;8594;52.052;8.354;2023-03-23T11:51:32;99573.00;;;13.70
16956;BMP180;8594;52.052;8.354;2023-03-23T11:54:05;99565.00;;;13.60
16956;BMP180;8594;52.052;8.354;2023-03-23T11:56:40;99571.00;;;13.80
16956;BMP180;8594;52.052;8.354;2023-03-23T11:59:13;99557.00;;;14.10
16956;BMP180;8594;52.052;8.354;2023-03-23T12:01:48;99563.00;;;14.40
16956;BMP180;8594;52.052;8.354;2023-03-23T12:04:48;99551.00;;;14.20
16956;BMP180;8594;52.052;8.354;2023-03-23T12:07:40;99556.00;;;14.20
16956;BMP180;8594;52.052;8.354;2023-03-23T12:10:25;99542.00;;;14.00
16956;BMP180;8594;52.052;8.354;2023-03-23T12:13:09;99541.00;;;14.40
16956;BMP180;8594;52.052;8.354;2023-03-23T12:15:50;99538.00;;;14.50
16956;BMP180;8594;52.052;8.354;2023-03-23T12:18:36;99540.00;;;13.80
16956;BMP180;8594;52.052;8.354;2023-03-23T12:21:19;99550.00;;;14.10
16956;BMP180;8594;52.052;8.354;2023-03-23T12:23:59;99563.00;;;14.60
16956;BMP180;8594;52.052;8.354;2023-03-23T12:26:31;99572.00;;;14.20
16956;BMP180;8594;52.052;8.354;2023-03-23T12:29:22;99568.00;;;14.50
16956;BMP180;8594;52.052;8.354;2023-03-23T12:32:18;99563.00;;;14.60
16956;BMP180;8594;52.052;8.354;2023-03-23T12:34:54;99555.00;;;14.60
16956;BMP180;8594;52.052;8.354;2023-03-23T12:37:38;99541.00;;;14.70
16956;BMP180;8594;52.052;8.354;2023-03-23T12:40:32;99551.00;;;14.30
16956;BMP180;8594;52.052;8.354;2023-03-23T12:43:13;99553.00;;;14.60
16956;BMP180;8594;52.052;8.354;2023-03-23T12:46:01;99564.00;;;14.30
16956;BMP180;8594;52.052;8.354;2023-03-23T12:48:35;99552.00;;;14.00
16956;BMP180;8594;52.052;8.354;2023-03-23T12:51:14;99556.00;;;14.50
16956;BMP180;8594;52.052;8.354;2023-03-23T12:53:52;99549.00;;;14.80
16956;BMP180;8594;52.052;8.354;2023-03-23T12:56:27;99555.00;;;14.80
16956;BMP180;8594;52.052;8.354;2023-03-23T12:59:10;99562.00;;;15.10
16956;BMP180;8594;52.052;8.354;2023-03-23T13:01:45;99550.00;;;14.50
16956;BMP180;8594;52.052;8.354;2023-03-23T13:04:19;99543.00;;;14.50
16956;BMP180;8594;52.052;8.354;2023-03-23T13:06:48;99535.00;;;14.80
16956;BMP180;8594;52.052;8.354;2023-03-23T13:09:22;99544.00;;;14.90
16956;BMP180;8594;52.052;8.354;2023-03-23T13:11:54;99547.00;;;14.70
16956;BMP180;8594;52.052;8.354;2023-03-23T13:14:37;99547.00;;;14.80
16956;BMP180;8594;52.052;8.354;2023-03-23T13:17:22;99552.00;;;14.90
16956;BMP180;8594;52.052;8.354;2023-03-23T13:20:32;99568.00;;;14.80
16956;BMP180;8594;52.052;8.354;2023-03-23T13:23:09;99556.00;;;14.80
16956;BMP180;8594;52.052;8.354;2023-03-23T13:25:51;99541.00;;;15.40
16956;BMP180;8594;52.052;8.354;2023-03-23T13:28:21;99542.00;;;15.30
16956;BMP180;8594;52.052;8.354;2023-03-23T13:30:57;99542.00;;;15.50
16956;BMP180;8594;52.052;8.354;2023-03-23T13:33:29;99540.00;;;15.30
16956;BMP180;8594;52.052;8.354;2023-03-23T13:36:01;99560.00;;;15.20
16956;BMP180;8594;52.052;8.354;2023-03-23T13:38:31;99542.00;;;15.50
16956;BMP180;8594;52.052;8.354;2023-03-23T13:41:06;99553.00;;;15.80
16956;BMP180;8594;52.052;8.354;2023-03-23T13:43:35;99556.00;;;15.20
16956;BMP180;8594;52.052;8.354;2023-03-23T13:46:24;99554.00;;;15.30
16956;BMP180;8594;52.052;8.354;2023-03-23T13:49:16;99546.00;;;14.90
16956;BMP180;8594;52.052;8.354;2023-03-23T13:52:16;99538.00;;;14.80
16956;BMP180;8594;52.052;8.354;2023-03-23T13:54:46;99534.00;;;15.20
16956;BMP180;8594;52.052;8.354;2023-03-23T13:57:36;99538.00;;;15.10
16956;BMP180;8594;52.052;8.354;2023-03-23T14:00:36;99540.00;;;15.50
16956;BMP180;8594;52.052;8.354;2023-03-23T14:03:13;99531.00;;;15.50
16956;BMP180;8594;52.052;8.354;2023-03-23T14:05:44;99539.00;;;15.60
16956;BMP180;8594;52.052;8.354;2023-03-23T14:08:20;99526.00;;;15.70
16956;BMP180;8594;52.052;8.354;2023-03-23T14:10:53;99529.00;;;15.40
16956;BMP180;8594;52.052;8.354;2023-03-23T14:13:29;99534.00;;;15.60
16956;BMP180;8594;52.052;8.354;2023-03-23T14:16:00;99541.00;;;15.80
16956;BMP180;8594;52.052;8.354;2023-03-23T14:18:36;99538.00;;;15.40
16956;BMP180;8594;52.052;8.354;2023-03-23T14:21:11;99551.00;;;15.30
16956;BMP180;8594;52.052;8.354;2023-03-23T14:23:40;99548.00;;;15.70
16956;BMP180;8594;52.052;8.354;2023-03-23T14:26:12;99550.00;;;15.20
16956;BMP180;8594;52.052;8.354;2023-03-23T14:28:45;99542.00;;;15.50
16956;BMP180;8594;52.052;8.354;2023-03-23T14:31:19;99548.00;;;15.70
16956;BMP180;8594;52.052;8.354;2023-03-23T14:33:47;99543.00;;;15.80
16956;BMP180;8594;52.052;8.354;2023-03-23T14:36:21;99530.00;;;15.80
16956;BMP180;8594;52.052;8.354;2023-03-23T14:41:23;99538.00;;;16.20
16956;BMP180;8594;52.052;8.354;2023-03-23T14:43:50;99545.00;;;15.90
16956;BMP180;8594;52.052;8.354;2023-03-23T14:46:17;99532.00;;;16.20
16956;BMP180;8594;52.052;8.354;2023-03-23T14:48:44;99532.00;;;16.50
16956;BMP180;8594;52.052;8.354;2023-03-23T14:51:20;99532.00;;;16.50
16956;BMP180;8594;52.052;8.354;2023-03-23T14:53:47;99519.00;;;15.90